createdAt,value
2024-02-17T00:01:43.709Z,100777.78
2024-02-17T00:04:12.533Z,100781.31
2024-02-17T00:06:41.004Z,100777.09
2024-02-17T00:09:09.572Z,100757.81
2024-02-17T00:11:38.468Z,100765.16
2024-02-17T00:14:07.337Z,100756.63
2024-02-17T00:16:35.888Z,100726.41
2024-02-17T00:19:06.243Z,100748.09
2024-02-17T00:21:35.078Z,100703.53
2024-02-17T00:24:03.563Z,100720.38
2024-02-17T00:26:32.036Z,100721.34
2024-02-17T00:29:00.637Z,100707.31
2024-02-17T00:31:29.156Z,100727.59
2024-02-17T00:33:57.797Z,100719.88
2024-02-17T00:36:27.662Z,100707.69
2024-02-17T00:38:56.236Z,100695.75
2024-02-17T00:41:24.690Z,100688.84
2024-02-17T00:43:53.342Z,100665.41
2024-02-17T00:46:22.137Z,100676.78
2024-02-17T00:48:50.692Z,100688.03
2024-02-17T00:51:19.418Z,100684.69
2024-02-17T00:53:49.253Z,100674.22
2024-02-17T00:56:17.928Z,100659.50
2024-02-17T00:58:46.494Z,100671.88
2024-02-17T01:01:23.084Z,100665.66
2024-02-17T01:03:58.311Z,100675.31
2024-02-17T01:06:27.115Z,100677.19
2024-02-17T01:08:57.195Z,100655.47
2024-02-17T01:11:26.067Z,100655.53
2024-02-17T01:13:54.860Z,100649.53
2024-02-17T01:16:23.638Z,100599.75
2024-02-17T01:18:52.670Z,100630.44
2024-02-17T01:21:21.483Z,100595.50
2024-02-17T01:23:50.141Z,100613.31
2024-02-17T01:26:20.196Z,100619.34
2024-02-17T01:28:48.802Z,100624.63
2024-02-17T01:31:17.352Z,100589.06
2024-02-17T01:33:48.237Z,100584.56
2024-02-17T01:36:18.241Z,100593.34
2024-02-17T01:38:48.040Z,100614.34
2024-02-17T01:41:16.963Z,100591.03
2024-02-17T01:43:47.254Z,100562.06
2024-02-17T01:46:16.190Z,100512.97
2024-02-17T01:48:45.233Z,100524.78
2024-02-17T01:51:14.496Z,100588.53
2024-02-17T01:53:44.995Z,100562.44
2024-02-17T01:56:14.519Z,100568.72
2024-02-17T01:58:43.229Z,100556.50
2024-02-17T02:01:14.218Z,100560.94
2024-02-17T02:03:43.359Z,100546.28
2024-02-17T02:06:13.773Z,100552.38
2024-02-17T02:08:42.475Z,100535.03
2024-02-17T02:11:11.480Z,100532.38
2024-02-17T02:13:40.594Z,100514.38
2024-02-17T02:16:13.447Z,100513.50
2024-02-17T02:18:42.277Z,100484.47
2024-02-17T02:21:11.145Z,100452.50
2024-02-17T02:23:39.826Z,100497.84
2024-02-17T02:26:10.007Z,100517.88
2024-02-17T02:28:38.702Z,100497.88
2024-02-17T02:31:07.580Z,100491.03
2024-02-17T02:33:36.596Z,100452.47
2024-02-17T02:36:05.625Z,100475.41
2024-02-17T02:38:34.453Z,100419.63
2024-02-17T02:41:03.302Z,100441.50
2024-02-17T02:43:33.697Z,100398.88
2024-02-17T02:46:02.393Z,100409.50
2024-02-17T02:48:31.315Z,100426.81
2024-02-17T02:50:59.941Z,100395.47
2024-02-17T02:53:29.014Z,100400.72
2024-02-17T02:55:59.236Z,100416.72
2024-02-17T02:58:27.789Z,100438.63
2024-02-17T03:00:57.858Z,100428.25
2024-02-17T03:03:26.492Z,100420.41
2024-02-17T03:05:55.134Z,100424.78
2024-02-17T03:08:23.965Z,100393.44
2024-02-17T03:10:55.627Z,100390.25
2024-02-17T03:13:24.595Z,100378.94
2024-02-17T03:15:53.333Z,100379.00
2024-02-17T03:18:23.578Z,100329.31
2024-02-17T03:20:52.472Z,100315.06
2024-02-17T03:23:21.006Z,100299.50
2024-02-17T03:25:49.615Z,100355.50
2024-02-17T03:28:18.292Z,100354.50
2024-02-17T03:30:46.938Z,100368.63
2024-02-17T03:33:16.008Z,100343.34
2024-02-17T03:35:46.349Z,100350.50
2024-02-17T03:38:15.067Z,100327.03
2024-02-17T03:40:43.645Z,100326.31
2024-02-17T03:43:12.192Z,100329.78
2024-02-17T03:45:40.861Z,100316.84
2024-02-17T03:48:10.302Z,100295.03
2024-02-17T03:50:39.176Z,100318.59
2024-02-17T03:53:12.011Z,100305.56
2024-02-17T03:55:40.694Z,100312.56
2024-02-17T03:58:09.279Z,100314.31
2024-02-17T04:00:38.053Z,100290.00
2024-02-17T04:03:09.154Z,100297.00
2024-02-17T04:05:38.695Z,100294.41
2024-02-17T04:08:07.729Z,100309.13
2024-02-17T04:10:37.764Z,100284.00
2024-02-17T04:13:06.772Z,100286.66
2024-02-17T04:15:35.508Z,100278.88
2024-02-17T04:18:08.135Z,100254.56
2024-02-17T04:20:39.310Z,100278.03
2024-02-17T04:23:08.211Z,100219.78
2024-02-17T04:25:38.300Z,100252.91
2024-02-17T04:28:08.937Z,100266.00
2024-02-17T04:30:37.568Z,100241.53
2024-02-17T04:33:06.249Z,100248.69
2024-02-17T04:35:35.044Z,100261.69
2024-02-17T04:38:03.852Z,100228.63
2024-02-17T04:40:32.622Z,100207.78
2024-02-17T04:43:02.592Z,100253.94
2024-02-17T04:45:32.166Z,100213.97
2024-02-17T04:48:00.686Z,100235.78
2024-02-17T04:50:29.384Z,100179.22
2024-02-17T04:52:58.079Z,100208.13
2024-02-17T04:55:27.793Z,100173.25
2024-02-17T04:57:56.475Z,100204.63
2024-02-17T05:00:26.625Z,100146.41
2024-02-17T05:02:55.508Z,100137.66
2024-02-17T05:05:24.341Z,100142.97
2024-02-17T05:07:53.045Z,100149.91
2024-02-17T05:10:22.011Z,100142.13
2024-02-17T05:12:51.405Z,100176.25
2024-02-17T05:15:20.031Z,100181.47
2024-02-17T05:17:49.970Z,100165.91
2024-02-17T05:20:22.194Z,100163.31
2024-02-17T05:22:50.877Z,100162.38
2024-02-17T05:25:19.975Z,100117.19
2024-02-17T05:27:48.761Z,100151.97
2024-02-17T05:30:18.815Z,100113.75
2024-02-17T05:32:50.542Z,100084.25
2024-02-17T05:35:19.242Z,100122.56
2024-02-17T05:37:47.965Z,100109.59
2024-02-17T05:40:16.992Z,100114.94
2024-02-17T05:42:45.680Z,100114.06
2024-02-17T05:45:14.411Z,100110.59
2024-02-17T05:47:43.429Z,100099.31
2024-02-17T05:50:13.505Z,100097.63
2024-02-17T05:52:42.647Z,100081.25
2024-02-17T05:55:11.439Z,100069.97
2024-02-17T05:57:40.015Z,100043.03
2024-02-17T06:00:09.740Z,99982.22
2024-02-17T06:02:45.046Z,100063.94
2024-02-17T06:05:30.144Z,100048.38
2024-02-17T06:07:58.640Z,100035.28
2024-02-17T06:10:27.218Z,100039.72
2024-02-17T06:12:55.841Z,100031.94
2024-02-17T06:15:24.468Z,100045.81
2024-02-17T06:18:14.044Z,100020.66
2024-02-17T06:21:01.962Z,99952.94
2024-02-17T06:23:30.538Z,100020.72
2024-02-17T06:25:59.810Z,100031.13
2024-02-17T06:28:28.444Z,100032.75
2024-02-17T06:30:57.004Z,100033.66
2024-02-17T06:33:25.820Z,100029.34
2024-02-17T06:35:55.694Z,100034.53
2024-02-17T06:38:25.326Z,100032.81
2024-02-17T06:40:54.276Z,100028.50
2024-02-17T06:43:22.966Z,100025.84
2024-02-17T06:45:51.597Z,100029.34
2024-02-17T06:48:20.229Z,99963.34
2024-02-17T06:50:48.927Z,100027.59
2024-02-17T06:53:19.340Z,100032.88
2024-02-17T06:55:49.056Z,99946.81
2024-02-17T06:58:17.847Z,99985.03
2024-02-17T07:00:46.649Z,100032.84
2024-02-17T07:03:16.028Z,99977.19
2024-02-17T07:05:45.121Z,100021.63
2024-02-17T07:08:13.991Z,100016.38
2024-02-17T07:10:44.199Z,100027.69
2024-02-17T07:13:12.780Z,100019.03
2024-02-17T07:15:43.108Z,99983.53
2024-02-17T07:18:13.328Z,100008.69
2024-02-17T07:20:42.517Z,99996.56
2024-02-17T07:23:14.549Z,99987.94
2024-02-17T07:25:45.762Z,99996.56
2024-02-17T07:28:14.812Z,99975.84
2024-02-17T07:30:44.146Z,99991.38
2024-02-17T07:33:13.631Z,99988.81
2024-02-17T07:35:45.747Z,99994.91
2024-02-17T07:38:14.970Z,99987.13
2024-02-17T07:40:45.009Z,99979.28
2024-02-17T07:43:13.584Z,99988.00
2024-02-17T07:45:42.212Z,99976.69
2024-02-17T07:48:10.999Z,99973.28
2024-02-17T07:50:39.544Z,99955.00
2024-02-17T07:53:08.521Z,99956.78
2024-02-17T07:55:37.108Z,99941.97
2024-02-17T07:58:09.984Z,99916.78
2024-02-17T08:00:40.023Z,99918.59
2024-02-17T08:03:08.752Z,99983.72
2024-02-17T08:05:38.207Z,99968.13
2024-02-17T08:08:07.451Z,99962.03
2024-02-17T08:10:35.915Z,99969.88
2024-02-17T08:13:04.983Z,99963.81
2024-02-17T08:15:34.997Z,99951.66
2024-02-17T08:18:04.220Z,99959.53
2024-02-17T08:20:34.031Z,99952.63
2024-02-17T08:23:03.721Z,99965.63
2024-02-17T08:25:32.317Z,99966.50
2024-02-17T08:28:00.924Z,99931.78
2024-02-17T08:30:29.692Z,99959.56
2024-02-17T08:32:59.535Z,99951.72
2024-02-17T08:35:28.235Z,99962.19
2024-02-17T08:37:56.789Z,99944.81
2024-02-17T08:40:25.861Z,99951.78
2024-02-17T08:42:54.718Z,99937.94
2024-02-17T08:45:23.420Z,99942.28
2024-02-17T08:47:51.981Z,99953.56
2024-02-17T08:50:22.285Z,99931.91
2024-02-17T08:52:50.778Z,99953.59
2024-02-17T08:55:19.507Z,99931.94
2024-02-17T08:57:49.086Z,99929.34
2024-02-17T09:00:18.105Z,99931.09
2024-02-17T09:02:46.690Z,99927.63
2024-02-17T09:05:15.218Z,99926.72
2024-02-17T09:07:45.120Z,99928.44
2024-02-17T09:10:16.920Z,99931.94
2024-02-17T09:12:45.715Z,99933.69
2024-02-17T09:15:14.362Z,99932.81
2024-02-17T09:17:43.942Z,99913.75
2024-02-17T09:20:13.719Z,99921.53
2024-02-17T09:22:42.461Z,99899.88
2024-02-17T09:25:12.387Z,99916.41
2024-02-17T09:27:41.121Z,99910.34
2024-02-17T09:30:10.207Z,99904.28
2024-02-17T09:32:38.952Z,99906.91
2024-02-17T09:35:07.839Z,99899.97
2024-02-17T09:37:36.412Z,99912.97
2024-02-17T09:40:07.560Z,99906.94
2024-02-17T09:42:38.277Z,99908.66
2024-02-17T09:45:08.122Z,99886.09
2024-02-17T09:47:37.328Z,99913.88
2024-02-17T09:50:06.499Z,99921.66
2024-02-17T09:52:36.492Z,99915.59
2024-02-17T09:55:06.178Z,99898.25
2024-02-17T09:57:42.496Z,99872.22
2024-02-17T10:00:19.697Z,99917.34
2024-02-17T10:02:50.009Z,99900.88
2024-02-17T10:05:20.819Z,99913.03
2024-02-17T10:07:51.022Z,99908.69
2024-02-17T10:10:21.607Z,99893.97
2024-02-17T10:12:51.817Z,99895.69
2024-02-17T10:15:23.352Z,99907.84
2024-02-17T10:17:54.483Z,99900.06
2024-02-17T10:20:23.621Z,99898.34
2024-02-17T10:22:52.405Z,99907.00
2024-02-17T10:25:24.187Z,99907.03
2024-02-17T10:27:54.392Z,99904.41
2024-02-17T10:30:24.519Z,99906.13
2024-02-17T10:32:53.318Z,99907.03
2024-02-17T10:35:23.633Z,99898.34
2024-02-17T10:37:52.757Z,99907.88
2024-02-17T10:40:23.375Z,99903.53
2024-02-17T10:42:53.063Z,99906.13
2024-02-17T10:45:24.422Z,99887.06
2024-02-17T10:47:59.415Z,99859.28
2024-02-17T10:50:28.404Z,99905.28
2024-02-17T10:53:04.002Z,99919.16
2024-02-17T10:55:37.978Z,99917.41
2024-02-17T10:58:12.049Z,99873.19
2024-02-17T11:00:47.703Z,99884.47
2024-02-17T11:03:22.332Z,99862.75
2024-02-17T11:05:55.479Z,99878.38
2024-02-17T11:08:25.301Z,99880.09
2024-02-17T11:10:53.830Z,99915.69
2024-02-17T11:13:24.518Z,99883.56
2024-02-17T11:16:06.244Z,99880.97
2024-02-17T11:18:38.031Z,99900.91
2024-02-17T11:21:07.524Z,99876.63
2024-02-17T11:23:39.024Z,99874.03
2024-02-17T11:26:10.069Z,99913.94
2024-02-17T11:28:39.310Z,99882.69
2024-02-17T11:31:11.930Z,99872.25
2024-02-17T11:33:48.236Z,99941.69
2024-02-17T11:36:19.210Z,99854.06
2024-02-17T11:38:49.659Z,99877.50
2024-02-17T11:41:19.163Z,99923.50
2024-02-17T11:43:48.643Z,99950.38
2024-02-17T11:46:20.695Z,99881.81
2024-02-17T11:48:50.163Z,99893.09
2024-02-17T11:51:22.533Z,99920.00
2024-02-17T11:53:53.015Z,99896.56
2024-02-17T11:56:23.599Z,99877.47
2024-02-17T11:58:54.717Z,99878.34
2024-02-17T12:01:53.945Z,99867.94
2024-02-17T12:04:28.936Z,99905.25
2024-02-17T12:06:58.608Z,99902.66
2024-02-17T12:09:27.801Z,99918.25
2024-02-17T12:11:56.543Z,99940.81
2024-02-17T12:14:26.146Z,99866.19
2024-02-17T12:16:56.325Z,99897.44
2024-02-17T12:19:27.952Z,99894.84
2024-02-17T12:21:57.709Z,99903.50
2024-02-17T12:24:26.863Z,99900.91
2024-02-17T12:26:56.473Z,99911.28
2024-02-17T12:29:25.246Z,99895.69
2024-02-17T12:31:58.752Z,99895.69
2024-02-17T12:34:31.183Z,99960.78
2024-02-17T12:37:05.125Z,99932.97
2024-02-17T12:39:34.302Z,99940.78
2024-02-17T12:42:04.851Z,99900.88
2024-02-17T12:44:34.825Z,99970.31
2024-02-17T12:47:15.263Z,99948.59
2024-02-17T12:49:44.645Z,100005.88
2024-02-17T12:52:13.622Z,99978.06
2024-02-17T12:54:44.821Z,99972.84
2024-02-17T12:57:13.675Z,99979.75
2024-02-17T12:59:42.583Z,100021.38
2024-02-17T13:02:13.042Z,100063.03
2024-02-17T13:04:42.027Z,100003.91
2024-02-17T13:07:12.389Z,100062.06
2024-02-17T13:09:42.599Z,100079.34
2024-02-17T13:12:13.372Z,99988.91
2024-02-17T13:14:42.168Z,100100.84
2024-02-17T13:17:11.198Z,100008.56
2024-02-17T13:19:41.864Z,100034.56
2024-02-17T13:22:10.717Z,100060.56
2024-02-17T13:24:40.622Z,100038.69
2024-02-17T13:27:09.349Z,100116.13
2024-02-17T13:29:38.071Z,100069.94
2024-02-17T13:32:07.633Z,100078.56
2024-02-17T13:34:38.190Z,100063.84
2024-02-17T13:37:08.460Z,100084.56
2024-02-17T13:39:37.182Z,100140.22
2024-02-17T13:42:07.043Z,100080.97
2024-02-17T13:44:35.838Z,100104.38
2024-02-17T13:47:04.667Z,100083.34
2024-02-17T13:49:34.865Z,100083.22
2024-02-17T13:52:05.016Z,100158.13
2024-02-17T13:54:35.272Z,100179.78
2024-02-17T13:57:05.147Z,100084.00
2024-02-17T13:59:38.508Z,100108.25
2024-02-17T14:02:07.989Z,100193.41
2024-02-17T14:04:37.312Z,100184.78
2024-02-17T14:07:08.185Z,100187.31
2024-02-17T14:09:39.108Z,100152.38
2024-02-17T14:12:08.941Z,100135.78
2024-02-17T14:14:37.658Z,100178.50
2024-02-17T14:17:06.954Z,100182.84
2024-02-17T14:19:38.930Z,100188.78
2024-02-17T14:22:08.256Z,100130.41
2024-02-17T14:24:39.356Z,100193.97
2024-02-17T14:27:08.408Z,100163.31
2024-02-17T14:29:39.039Z,100170.34
2024-02-17T14:32:08.496Z,100163.34
2024-02-17T14:34:37.917Z,100159.69
2024-02-17T14:37:06.992Z,100164.00
2024-02-17T14:39:36.519Z,100188.25
2024-02-17T14:42:07.528Z,100169.13
2024-02-17T14:44:37.221Z,100195.88
2024-02-17T14:47:06.426Z,100195.72
2024-02-17T14:49:35.237Z,100181.88
2024-02-17T14:52:04.108Z,100215.00
2024-02-17T14:54:33.194Z,100199.19
2024-02-17T14:57:01.778Z,100200.81
2024-02-17T14:59:32.122Z,100203.34
2024-02-17T15:02:00.934Z,100181.44
2024-02-17T15:04:29.769Z,100203.25
2024-02-17T15:07:00.228Z,100186.69
2024-02-17T15:09:29.582Z,100265.06
2024-02-17T15:12:00.339Z,100201.41
2024-02-17T15:14:29.966Z,100207.50
2024-02-17T15:17:00.324Z,100240.38
2024-02-17T15:19:29.050Z,100180.22
2024-02-17T15:21:57.791Z,100230.75
2024-02-17T15:24:26.979Z,100292.63
2024-02-17T15:26:55.574Z,100284.78
2024-02-17T15:29:24.348Z,100225.56
2024-02-17T15:31:53.071Z,100277.06
2024-02-17T15:34:23.219Z,100240.28
2024-02-17T15:36:52.367Z,100259.41
2024-02-17T15:39:21.390Z,100278.50
2024-02-17T15:41:50.246Z,100247.97
2024-02-17T15:44:22.596Z,100332.44
2024-02-17T15:46:51.562Z,100315.97
2024-02-17T15:49:20.259Z,100266.19
2024-02-17T15:51:50.682Z,100226.09
2024-02-17T15:54:19.637Z,100337.63
2024-02-17T15:56:48.599Z,100259.06
2024-02-17T15:59:17.930Z,100284.41
2024-02-17T16:01:47.779Z,100262.44
2024-02-17T16:04:17.355Z,100346.22
2024-02-17T16:06:46.043Z,100359.16
2024-02-17T16:09:16.481Z,100317.97
2024-02-17T16:11:46.460Z,100304.97
2024-02-17T16:14:15.230Z,100353.69
2024-02-17T16:16:43.964Z,100377.25
2024-02-17T16:19:12.794Z,100302.19
2024-02-17T16:21:41.564Z,100387.63
2024-02-17T16:24:12.362Z,100347.28
2024-02-17T16:26:42.636Z,100349.84
2024-02-17T16:29:11.911Z,100359.47
2024-02-17T16:31:40.570Z,100356.81
2024-02-17T16:34:12.154Z,100418.78
2024-02-17T16:36:41.212Z,100395.06
2024-02-17T16:39:12.418Z,100426.53
2024-02-17T16:41:42.757Z,100438.59
2024-02-17T16:44:11.958Z,100445.47
2024-02-17T16:46:41.442Z,100446.28
2024-02-17T16:49:10.587Z,100399.88
2024-02-17T16:51:39.563Z,100414.56
2024-02-17T16:54:08.294Z,100419.75
2024-02-17T16:56:37.250Z,100403.88
2024-02-17T16:59:07.751Z,100424.06
2024-02-17T17:01:36.443Z,100473.75
2024-02-17T17:04:05.782Z,100408.94
2024-02-17T17:06:35.314Z,100489.34
2024-02-17T17:09:05.105Z,100440.22
2024-02-17T17:11:33.772Z,100490.06
2024-02-17T17:14:02.423Z,100445.19
2024-02-17T17:16:33.719Z,100472.41
2024-02-17T17:19:02.485Z,100416.31
2024-02-17T17:21:31.264Z,100520.34
2024-02-17T17:24:00.210Z,100487.69
2024-02-17T17:26:39.876Z,100454.78
2024-02-17T17:29:16.234Z,100489.41
2024-02-17T17:31:47.650Z,100478.06
2024-02-17T17:34:17.460Z,100463.09
2024-02-17T17:36:48.336Z,100435.94
2024-02-17T17:39:17.347Z,100497.72
2024-02-17T17:41:46.104Z,100542.47
2024-02-17T17:44:16.913Z,100537.72
2024-02-17T17:47:02.376Z,100486.88
2024-02-17T17:49:42.033Z,100562.97
2024-02-17T17:52:20.798Z,100543.66
2024-02-17T17:54:54.545Z,100571.47
2024-02-17T17:57:45.083Z,100530.41
2024-02-17T18:00:22.660Z,100518.06
2024-02-17T18:03:02.071Z,100572.19
2024-02-17T18:05:33.959Z,100506.50
2024-02-17T18:08:03.116Z,100605.31
2024-02-17T18:10:34.468Z,100566.75
2024-02-17T18:13:03.693Z,100526.38
2024-02-17T18:15:32.481Z,100539.38
2024-02-17T18:18:03.736Z,100632.13
2024-02-17T18:20:34.182Z,100568.81
2024-02-17T18:23:02.790Z,100638.06
2024-02-17T18:25:31.685Z,100576.66
2024-02-17T18:28:00.535Z,100591.34
2024-02-17T18:30:29.290Z,100646.44
2024-02-17T18:32:58.361Z,100667.31
2024-02-17T18:35:28.472Z,100631.47
2024-02-17T18:37:57.203Z,100631.22
2024-02-17T18:40:25.903Z,100617.22
2024-02-17T18:42:54.886Z,100623.38
2024-02-17T18:45:23.665Z,100641.44
2024-02-17T18:47:53.681Z,100669.31
2024-02-17T18:50:22.495Z,100641.28
2024-02-17T18:52:53.811Z,100638.47
2024-02-17T18:55:22.639Z,100704.06
2024-02-17T18:57:52.732Z,100639.03
2024-02-17T19:00:21.955Z,100613.66
2024-02-17T19:02:50.696Z,100643.44
2024-02-17T19:05:19.361Z,100695.13
2024-02-17T19:07:48.406Z,100666.16
2024-02-17T19:10:21.567Z,100665.00
2024-02-17T19:12:51.416Z,100706.19
2024-02-17T19:15:20.201Z,100715.84
2024-02-17T19:17:49.572Z,100654.34
2024-02-17T19:20:18.555Z,100722.34
2024-02-17T19:22:48.151Z,100675.94
2024-02-17T19:25:18.566Z,100658.22
2024-02-17T19:27:47.191Z,100701.88
2024-02-17T19:30:16.573Z,100729.94
2024-02-17T19:32:45.872Z,100743.13
2024-02-17T19:35:14.845Z,100686.03
2024-02-17T19:37:43.685Z,100711.25
2024-02-17T19:40:12.550Z,100693.69
2024-02-17T19:42:42.952Z,100724.50
2024-02-17T19:45:12.360Z,100737.53
2024-02-17T19:47:41.121Z,100765.31
2024-02-17T19:50:11.199Z,100772.31
2024-02-17T19:52:39.904Z,100745.75
2024-02-17T19:55:10.161Z,100731.75
2024-02-17T19:57:38.861Z,100712.66
2024-02-17T20:00:10.952Z,100754.47
2024-02-17T20:02:39.849Z,100725.47
2024-02-17T20:05:09.277Z,100743.47
2024-02-17T20:07:40.979Z,100780.41
2024-02-17T20:10:12.194Z,100804.03
2024-02-17T20:12:40.793Z,100757.47
2024-02-17T20:15:13.493Z,100751.28
2024-02-17T20:17:46.443Z,100807.31
2024-02-17T20:20:17.992Z,100811.72
2024-02-17T20:22:47.050Z,100810.69
2024-02-17T20:25:15.517Z,100762.44
2024-02-17T20:27:44.416Z,100823.81
2024-02-17T20:30:14.608Z,100815.00
2024-02-17T20:32:43.230Z,100806.09
2024-02-17T20:35:11.940Z,100834.63
2024-02-17T20:37:40.588Z,100833.78
2024-02-17T20:40:13.949Z,100843.44
2024-02-17T20:42:42.923Z,100790.69
2024-02-17T20:45:11.826Z,100794.16
2024-02-17T20:47:45.252Z,100789.66
2024-02-17T20:50:14.888Z,100791.34
2024-02-17T20:52:43.606Z,100817.47
2024-02-17T20:55:12.605Z,100856.19
2024-02-17T20:57:41.504Z,100847.38
2024-02-17T21:00:11.930Z,100809.56
2024-02-17T21:02:41.991Z,100823.47
2024-02-17T21:05:11.707Z,100814.03
2024-02-17T21:07:40.469Z,100856.09
2024-02-17T21:10:11.050Z,100852.38
2024-02-17T21:12:40.029Z,100867.41
2024-02-17T21:15:10.517Z,100825.94
2024-02-17T21:17:39.342Z,100767.06
2024-02-17T21:20:10.917Z,100860.09
2024-02-17T21:22:42.252Z,100820.53
2024-02-17T21:25:12.205Z,100834.56
2024-02-17T21:27:40.923Z,100844.03
2024-02-17T21:30:11.284Z,100889.69
2024-02-17T21:32:40.106Z,100838.63
2024-02-17T21:35:11.642Z,100858.63
2024-02-17T21:37:40.217Z,100838.22
2024-02-17T21:40:10.004Z,100895.63
2024-02-17T21:42:38.816Z,100849.66
2024-02-17T21:45:10.643Z,100846.88
2024-02-17T21:47:41.317Z,100873.41
2024-02-17T21:50:13.076Z,100915.38
2024-02-17T21:52:41.852Z,100922.28
2024-02-17T21:55:11.032Z,100920.50
2024-02-17T21:57:39.696Z,100923.84
2024-02-17T22:00:09.334Z,100929.94
2024-02-17T22:02:41.230Z,100938.59
2024-02-17T22:05:12.274Z,100936.53
2024-02-17T22:07:41.007Z,100930.22
2024-02-17T22:10:10.649Z,100940.94
2024-02-17T22:12:39.258Z,100924.13
2024-02-17T22:15:09.036Z,100955.53
2024-02-17T22:17:37.704Z,100964.97
2024-02-17T22:20:07.246Z,100960.63
2024-02-17T22:22:37.818Z,100964.03
2024-02-17T22:25:07.084Z,100962.84
2024-02-17T22:27:35.682Z,100980.44
2024-02-17T22:30:04.491Z,100975.13
2024-02-17T22:32:33.058Z,100995.06
2024-02-17T22:35:01.691Z,100995.00
2024-02-17T22:37:30.298Z,101000.16
2024-02-17T22:40:00.314Z,101000.16
2024-02-17T22:42:28.887Z,101003.56
2024-02-17T22:44:57.406Z,101013.91
2024-02-17T22:47:25.967Z,101011.19
2024-02-17T22:49:55.241Z,101001.25
2024-02-17T22:52:23.723Z,101024.03
2024-02-17T22:54:52.141Z,101020.28
2024-02-17T22:57:22.124Z,101017.88
2024-02-17T22:59:50.572Z,101037.69
2024-02-17T23:02:19.863Z,101036.78
2024-02-17T23:04:49.116Z,101039.25
2024-02-17T23:07:17.739Z,101038.31
2024-02-17T23:09:46.654Z,101016.09
2024-02-17T23:12:15.299Z,101043.25
2024-02-17T23:14:45.251Z,101052.00
2024-02-17T23:17:13.732Z,101040.69
2024-02-17T23:19:42.297Z,101050.09
2024-02-17T23:22:10.829Z,101041.88
2024-02-17T23:24:39.688Z,101057.59
2024-02-17T23:27:08.461Z,101068.06
2024-02-17T23:29:38.596Z,101071.44
2024-02-17T23:32:09.124Z,101045.97
2024-02-17T23:34:38.071Z,101071.31
2024-02-17T23:37:06.857Z,101067.84
2024-02-17T23:39:36.097Z,101065.84
2024-02-17T23:42:05.198Z,101064.78
2024-02-17T23:44:33.762Z,101081.56
2024-02-17T23:47:02.382Z,101088.97
2024-02-17T23:49:32.471Z,101086.53
2024-02-17T23:52:01.101Z,101074.09
2024-02-17T23:54:29.700Z,101081.19
2024-02-17T23:56:59.201Z,101096.75
2024-02-17T23:59:28.016Z,101096.66
